createdAt,value
2022-11-16T00:00:13.389Z,5.99
2022-11-16T00:01:13.384Z,5.94
2022-11-16T00:02:13.526Z,5.94
2022-11-16T00:03:13.356Z,5.93
2022-11-16T00:04:13.346Z,5.93
2022-11-16T00:05:13.363Z,5.93
2022-11-16T00:06:13.322Z,5.94
2022-11-16T00:07:13.359Z,5.97
2022-11-16T00:08:13.290Z,5.94
2022-11-16T00:09:13.279Z,5.94
2022-11-16T00:10:13.277Z,5.97
2022-11-16T00:11:13.246Z,5.98
2022-11-16T00:12:13.268Z,5.94
2022-11-16T00:13:13.247Z,5.99
2022-11-16T00:14:13.206Z,6.02
2022-11-16T00:15:13.184Z,6.04
2022-11-16T00:16:13.200Z,6.04
2022-11-16T00:17:13.205Z,6.05
2022-11-16T00:18:13.295Z,6.07
2022-11-16T00:19:13.162Z,6.07
2022-11-16T00:20:13.157Z,6.05
2022-11-16T00:21:13.147Z,6.08
2022-11-16T00:22:13.119Z,6.07
2022-11-16T00:23:13.084Z,6.08
2022-11-16T00:24:13.088Z,6.08
2022-11-16T00:25:13.084Z,6.07
2022-11-16T00:26:13.059Z,6.05
2022-11-16T00:27:13.067Z,6.04
2022-11-16T00:28:13.035Z,6.05
2022-11-16T00:29:13.026Z,6.02
2022-11-16T00:30:12.980Z,6.02
2022-11-16T00:31:12.989Z,6.02
2022-11-16T00:32:12.997Z,6.02
2022-11-16T00:33:12.952Z,6.01
2022-11-16T00:34:12.939Z,6.01
2022-11-16T00:35:12.922Z,6.08
2022-11-16T00:36:12.913Z,6.11
2022-11-16T00:37:12.923Z,6.17
2022-11-16T00:38:12.894Z,6.22
2022-11-16T00:39:12.885Z,6.24
2022-11-16T00:40:12.877Z,6.22
2022-11-16T00:41:12.886Z,6.22
2022-11-16T00:42:12.862Z,6.20
2022-11-16T00:43:12.862Z,6.20
2022-11-16T00:44:12.805Z,6.20
2022-11-16T00:45:12.816Z,6.20
2022-11-16T00:46:12.804Z,6.17
2022-11-16T00:47:12.801Z,6.17
2022-11-16T00:48:12.753Z,6.16
2022-11-16T00:49:12.773Z,6.14
2022-11-16T00:50:12.731Z,6.14
2022-11-16T00:51:12.716Z,6.14
2022-11-16T00:52:12.697Z,6.09
2022-11-16T00:53:12.689Z,6.08
2022-11-16T00:54:12.725Z,6.04
2022-11-16T00:55:12.675Z,6.07
2022-11-16T00:56:12.646Z,6.07
2022-11-16T00:57:12.693Z,6.02
2022-11-16T00:58:12.628Z,6.04
2022-11-16T00:59:12.636Z,6.08
2022-11-16T01:00:12.597Z,6.12
2022-11-16T01:01:12.729Z,6.20
2022-11-16T01:02:12.557Z,6.24
2022-11-16T01:03:12.556Z,6.27
2022-11-16T01:04:12.563Z,6.28
2022-11-16T01:05:12.534Z,6.31
2022-11-16T01:06:12.505Z,6.33
2022-11-16T01:07:12.556Z,6.35
2022-11-16T01:08:12.478Z,6.39
2022-11-16T01:09:12.504Z,6.46
2022-11-16T01:10:12.459Z,6.69
2022-11-16T01:11:12.469Z,6.85
2022-11-16T01:12:12.431Z,6.92
2022-11-16T01:13:12.421Z,6.96
2022-11-16T01:14:12.430Z,7.02
2022-11-16T01:15:12.391Z,7.02
2022-11-16T01:16:12.376Z,7.03
2022-11-16T01:17:12.364Z,7.05
2022-11-16T01:18:12.357Z,7.06
2022-11-16T01:19:12.380Z,7.05
2022-11-16T01:20:12.319Z,7.00
2022-11-16T01:21:12.320Z,6.95
2022-11-16T01:22:12.292Z,6.93
2022-11-16T01:23:12.287Z,6.88
2022-11-16T01:24:12.306Z,6.85
2022-11-16T01:25:12.258Z,6.81
2022-11-16T01:26:12.245Z,6.78
2022-11-16T01:27:12.231Z,6.77
2022-11-16T01:28:12.215Z,6.75
2022-11-16T01:29:12.240Z,6.72
2022-11-16T01:30:12.201Z,6.69
2022-11-16T01:31:12.214Z,6.63
2022-11-16T01:32:12.168Z,6.63
2022-11-16T01:33:12.159Z,6.63
2022-11-16T01:34:12.147Z,6.63
2022-11-16T01:35:12.155Z,6.64
2022-11-16T01:36:12.125Z,6.64
2022-11-16T01:37:12.154Z,6.63
2022-11-16T01:38:12.088Z,6.63
2022-11-16T01:39:12.104Z,6.62
2022-11-16T01:40:12.055Z,6.56
2022-11-16T01:41:12.051Z,6.54
2022-11-16T01:42:12.165Z,6.51
2022-11-16T01:43:12.035Z,6.49
2022-11-16T01:44:12.009Z,6.48
2022-11-16T01:45:12.027Z,6.46
2022-11-16T01:46:11.990Z,6.44
2022-11-16T01:47:12.004Z,6.45
2022-11-16T01:48:11.997Z,6.48
2022-11-16T01:49:11.948Z,6.49
2022-11-16T01:50:11.939Z,6.54
2022-11-16T01:51:11.927Z,6.56
2022-11-16T01:52:11.901Z,6.57
2022-11-16T01:53:11.892Z,6.59
2022-11-16T01:54:11.870Z,6.60
2022-11-16T01:55:11.887Z,6.64
2022-11-16T01:56:11.847Z,6.66
2022-11-16T01:57:11.838Z,6.69
2022-11-16T01:58:11.813Z,6.72
2022-11-16T01:59:11.843Z,6.72
2022-11-16T02:00:11.808Z,6.74
2022-11-16T02:01:11.871Z,6.78
2022-11-16T02:02:11.765Z,6.81
2022-11-16T02:03:11.779Z,6.84
2022-11-16T02:04:11.743Z,6.85
2022-11-16T02:05:11.726Z,6.87
2022-11-16T02:06:11.742Z,6.85
2022-11-16T02:07:11.776Z,6.81
2022-11-16T02:08:11.688Z,6.81
2022-11-16T02:09:11.673Z,6.81
2022-11-16T02:10:11.677Z,6.81
2022-11-16T02:11:11.670Z,6.82
2022-11-16T02:12:11.661Z,6.84
2022-11-16T02:13:11.634Z,6.85
2022-11-16T02:14:11.630Z,6.88
2022-11-16T02:15:11.605Z,6.87
2022-11-16T02:16:11.612Z,6.89
2022-11-16T02:17:11.575Z,6.88
2022-11-16T02:18:11.582Z,6.89
2022-11-16T02:19:11.543Z,6.95
2022-11-16T02:20:11.526Z,6.96
2022-11-16T02:21:11.513Z,6.96
2022-11-16T02:22:11.534Z,6.97
2022-11-16T02:23:11.489Z,6.97
2022-11-16T02:24:11.500Z,6.97
2022-11-16T02:25:11.464Z,7.00
2022-11-16T02:26:11.435Z,7.03
2022-11-16T02:27:11.434Z,7.06
2022-11-16T02:28:11.418Z,7.07
2022-11-16T02:29:11.426Z,7.07
2022-11-16T02:30:11.394Z,7.07
2022-11-16T02:31:11.382Z,7.07
2022-11-16T02:32:11.351Z,7.13
2022-11-16T02:33:11.368Z,7.18
2022-11-16T02:34:11.339Z,7.21
2022-11-16T02:35:11.365Z,7.25
2022-11-16T02:36:11.310Z,7.31
2022-11-16T02:37:11.296Z,7.33
2022-11-16T02:38:11.277Z,7.33
2022-11-16T02:39:11.297Z,7.35
2022-11-16T02:40:11.252Z,7.32
2022-11-16T02:41:11.257Z,7.31
2022-11-16T02:42:11.226Z,7.29
2022-11-16T02:43:11.213Z,7.32
2022-11-16T02:44:11.191Z,7.32
2022-11-16T02:45:11.218Z,7.32
2022-11-16T02:46:11.186Z,7.31
2022-11-16T02:47:11.172Z,7.32
2022-11-16T02:48:11.137Z,7.33
2022-11-16T02:49:11.146Z,7.31
2022-11-16T02:50:11.111Z,7.31
2022-11-16T02:51:11.126Z,7.28
2022-11-16T02:52:11.093Z,7.24
2022-11-16T02:53:11.072Z,7.21
2022-11-16T02:54:11.063Z,7.20
2022-11-16T02:55:11.089Z,7.20
2022-11-16T02:56:11.080Z,7.20
2022-11-16T02:57:11.023Z,7.20
2022-11-16T02:58:11.006Z,7.18
2022-11-16T02:59:15.242Z,7.18
2022-11-16T03:00:10.977Z,7.18
2022-11-16T03:01:11.005Z,7.17
2022-11-16T03:02:10.980Z,7.17
2022-11-16T03:03:10.956Z,7.14
2022-11-16T03:04:10.939Z,7.14
2022-11-16T03:05:10.912Z,7.13
2022-11-16T03:06:10.904Z,7.13
2022-11-16T03:07:10.943Z,7.10
2022-11-16T03:08:10.906Z,7.11
2022-11-16T03:09:10.866Z,7.07
2022-11-16T03:10:10.842Z,7.10
2022-11-16T03:11:10.833Z,7.10
2022-11-16T03:12:10.831Z,7.10
2022-11-16T03:13:10.846Z,7.06
2022-11-16T03:14:10.816Z,7.05
2022-11-16T03:15:10.793Z,7.03
2022-11-16T03:16:10.776Z,7.03
2022-11-16T03:17:10.769Z,7.03
2022-11-16T03:18:10.778Z,7.00
2022-11-16T03:19:10.745Z,7.00
2022-11-16T03:20:10.712Z,6.99
2022-11-16T03:21:10.706Z,6.95
2022-11-16T03:22:10.705Z,6.89
2022-11-16T03:23:10.703Z,6.84
2022-11-16T03:24:10.687Z,6.81
2022-11-16T03:25:10.647Z,6.79
2022-11-16T03:26:10.641Z,6.78
2022-11-16T03:27:10.628Z,6.78
2022-11-16T03:28:10.602Z,6.78
2022-11-16T03:29:10.628Z,6.78
2022-11-16T03:30:10.584Z,6.78
2022-11-16T03:31:10.562Z,6.79
2022-11-16T03:32:10.562Z,6.75
2022-11-16T03:33:10.554Z,6.75
2022-11-16T03:34:10.546Z,6.74
2022-11-16T03:35:10.516Z,6.74
2022-11-16T03:36:10.494Z,6.74
2022-11-16T03:37:10.487Z,6.79
2022-11-16T03:38:10.479Z,6.81
2022-11-16T03:39:10.511Z,6.81
2022-11-16T03:40:10.479Z,6.79
2022-11-16T03:41:10.444Z,6.79
2022-11-16T03:42:10.429Z,6.81
2022-11-16T03:43:10.477Z,6.81
2022-11-16T03:44:10.420Z,6.79
2022-11-16T03:45:10.376Z,6.81
2022-11-16T03:46:10.384Z,6.81
2022-11-16T03:47:10.356Z,6.81
2022-11-16T03:48:10.331Z,6.82
2022-11-16T03:49:10.369Z,6.82
2022-11-16T03:50:10.305Z,6.88
2022-11-16T03:51:10.316Z,6.97
2022-11-16T03:52:10.276Z,7.06
2022-11-16T03:53:10.265Z,7.11
2022-11-16T03:54:10.275Z,7.07
2022-11-16T03:55:10.239Z,7.07
2022-11-16T03:56:10.254Z,7.06
2022-11-16T03:57:10.212Z,7.05
2022-11-16T03:58:10.199Z,7.03
2022-11-16T03:59:10.182Z,7.02
2022-11-16T04:00:10.219Z,7.02
2022-11-16T04:01:10.282Z,7.03
2022-11-16T04:02:10.142Z,7.06
2022-11-16T04:03:10.131Z,7.05
2022-11-16T04:04:10.112Z,7.06
2022-11-16T04:05:10.129Z,7.05
2022-11-16T04:06:10.101Z,7.05
2022-11-16T04:07:10.137Z,7.05
2022-11-16T04:08:10.062Z,7.05
2022-11-16T04:09:10.059Z,7.05
2022-11-16T04:10:10.053Z,7.06
2022-11-16T04:11:10.024Z,7.05
2022-11-16T04:12:10.011Z,7.06
2022-11-16T04:13:10.011Z,7.06
2022-11-16T04:14:09.986Z,7.10
2022-11-16T04:15:09.994Z,7.07
2022-11-16T04:16:09.976Z,7.07
2022-11-16T04:17:09.940Z,7.07
2022-11-16T04:18:09.952Z,7.07
2022-11-16T04:19:09.908Z,7.06
2022-11-16T04:20:09.901Z,7.06
2022-11-16T04:21:09.909Z,7.03
2022-11-16T04:22:09.884Z,7.03
2022-11-16T04:23:09.907Z,7.05
2022-11-16T04:24:09.844Z,7.02
2022-11-16T04:25:09.832Z,7.00
2022-11-16T04:26:09.822Z,6.99
2022-11-16T04:27:09.818Z,7.02
2022-11-16T04:28:09.835Z,6.97
2022-11-16T04:29:09.785Z,6.97
2022-11-16T04:30:09.795Z,6.97
2022-11-16T04:31:09.748Z,6.97
2022-11-16T04:32:09.755Z,6.99
2022-11-16T04:33:09.767Z,7.00
2022-11-16T04:34:09.712Z,7.02
2022-11-16T04:35:09.718Z,7.00
2022-11-16T04:36:09.702Z,6.99
2022-11-16T04:37:09.669Z,7.00
2022-11-16T04:38:09.696Z,6.99
2022-11-16T04:39:09.677Z,7.00
2022-11-16T04:40:09.642Z,7.00
2022-11-16T04:41:09.656Z,7.00
2022-11-16T04:42:09.662Z,6.97
2022-11-16T04:43:09.620Z,6.99
2022-11-16T04:44:09.615Z,6.97
2022-11-16T04:45:09.562Z,6.99
2022-11-16T04:46:09.561Z,6.99
2022-11-16T04:47:09.570Z,6.97
2022-11-16T04:48:09.646Z,6.96
2022-11-16T04:49:09.543Z,6.97
2022-11-16T04:50:09.505Z,6.97
2022-11-16T04:51:09.483Z,6.97
2022-11-16T04:52:09.491Z,6.97
2022-11-16T04:53:09.473Z,6.96
2022-11-16T04:54:09.472Z,6.95
2022-11-16T04:55:09.428Z,6.89
2022-11-16T04:56:09.420Z,6.87
2022-11-16T04:57:09.436Z,6.82
2022-11-16T04:58:09.397Z,6.79
2022-11-16T04:59:09.460Z,6.78
2022-11-16T05:00:09.410Z,6.74
2022-11-16T05:01:09.388Z,6.70
2022-11-16T05:02:09.344Z,6.69
2022-11-16T05:03:09.327Z,6.67
2022-11-16T05:04:09.320Z,6.66
2022-11-16T05:05:09.349Z,6.66
2022-11-16T05:06:09.277Z,6.66
2022-11-16T05:07:09.307Z,6.67
2022-11-16T05:08:09.442Z,6.67
2022-11-16T05:09:09.253Z,6.67
2022-11-16T05:10:09.273Z,6.69
2022-11-16T05:11:09.244Z,6.67
2022-11-16T05:12:09.253Z,6.67
2022-11-16T05:13:09.209Z,6.66
2022-11-16T05:14:09.227Z,6.66
2022-11-16T05:15:09.157Z,6.64
2022-11-16T05:16:09.177Z,6.66
2022-11-16T05:17:09.150Z,6.66
2022-11-16T05:18:09.154Z,6.64
2022-11-16T05:19:09.112Z,6.66
2022-11-16T05:20:09.095Z,6.64
2022-11-16T05:21:09.081Z,6.66
2022-11-16T05:22:09.102Z,6.66
2022-11-16T05:23:09.062Z,6.66
2022-11-16T05:24:09.077Z,6.64
2022-11-16T05:25:09.049Z,6.63
2022-11-16T05:26:09.054Z,6.59
2022-11-16T05:27:09.040Z,6.57
2022-11-16T05:28:09.019Z,6.59
2022-11-16T05:29:08.972Z,6.56
2022-11-16T05:30:08.966Z,6.56
2022-11-16T05:31:08.979Z,6.52
2022-11-16T05:32:08.945Z,6.48
2022-11-16T05:33:08.949Z,6.49
2022-11-16T05:34:08.909Z,6.48
2022-11-16T05:35:08.892Z,6.51
2022-11-16T05:36:08.898Z,6.54
2022-11-16T05:37:08.870Z,6.57
2022-11-16T05:38:08.879Z,6.60
2022-11-16T05:39:08.881Z,6.62
2022-11-16T05:40:08.831Z,6.63
2022-11-16T05:41:08.837Z,6.64
2022-11-16T05:42:08.818Z,6.64
2022-11-16T05:43:08.844Z,6.67
2022-11-16T05:44:08.786Z,6.69
2022-11-16T05:45:08.756Z,6.67
2022-11-16T05:46:08.796Z,6.69
2022-11-16T05:47:08.738Z,6.70
2022-11-16T05:48:08.759Z,6.69
2022-11-16T05:49:08.709Z,6.70
2022-11-16T05:50:08.695Z,6.67
2022-11-16T05:51:08.693Z,6.69
2022-11-16T05:52:08.673Z,6.66
2022-11-16T05:53:08.683Z,6.64
2022-11-16T05:54:08.651Z,6.63
2022-11-16T05:55:08.632Z,6.63
2022-11-16T05:56:08.781Z,6.63
2022-11-16T05:57:08.625Z,6.63
2022-11-16T05:58:08.625Z,6.63
2022-11-16T05:59:13.715Z,6.63
2022-11-16T06:00:08.568Z,6.63
2022-11-16T06:01:08.542Z,6.63
2022-11-16T06:02:08.550Z,6.62
2022-11-16T06:03:08.558Z,6.63
2022-11-16T06:04:08.535Z,6.60
2022-11-16T06:05:08.506Z,6.64
2022-11-16T06:06:08.489Z,6.63
2022-11-16T06:07:08.611Z,6.62
2022-11-16T06:08:08.469Z,6.59
2022-11-16T06:09:08.464Z,6.54
2022-11-16T06:10:08.442Z,6.48
2022-11-16T06:11:08.419Z,6.45
2022-11-16T06:12:08.410Z,6.42
2022-11-16T06:13:08.381Z,6.46
2022-11-16T06:14:08.434Z,6.44
2022-11-16T06:15:08.392Z,6.45
2022-11-16T06:16:08.350Z,6.42
2022-11-16T06:17:08.347Z,6.45
2022-11-16T06:18:08.323Z,6.44
2022-11-16T06:19:08.317Z,6.44
2022-11-16T06:20:08.336Z,6.45
2022-11-16T06:21:08.293Z,6.46
2022-11-16T06:22:08.272Z,6.48
2022-11-16T06:23:08.313Z,6.49
2022-11-16T06:24:08.247Z,6.51
2022-11-16T06:25:08.235Z,6.51
2022-11-16T06:26:08.224Z,6.51
2022-11-16T06:27:08.238Z,6.51
2022-11-16T06:28:08.488Z,6.49
2022-11-16T06:29:08.179Z,6.48
2022-11-16T06:30:08.188Z,6.49
2022-11-16T06:31:08.148Z,6.49
2022-11-16T06:32:08.136Z,6.51
2022-11-16T06:33:08.143Z,6.51
2022-11-16T06:34:08.116Z,6.51
2022-11-16T06:35:08.114Z,6.54
2022-11-16T06:36:08.090Z,6.52
2022-11-16T06:37:08.078Z,6.52
2022-11-16T06:38:08.086Z,6.56
2022-11-16T06:39:08.040Z,6.54
2022-11-16T06:40:08.032Z,6.54
2022-11-16T06:41:08.056Z,6.52
2022-11-16T06:42:08.039Z,6.51
2022-11-16T06:43:07.988Z,6.45
2022-11-16T06:44:08.027Z,6.39
2022-11-16T06:45:07.980Z,6.39
2022-11-16T06:46:07.982Z,6.39
2022-11-16T06:47:07.932Z,6.39
2022-11-16T06:48:07.924Z,6.41
2022-11-16T06:49:07.902Z,6.44
2022-11-16T06:50:07.913Z,6.46
2022-11-16T06:51:07.914Z,6.46
2022-11-16T06:52:07.867Z,6.49
2022-11-16T06:53:07.852Z,6.51
2022-11-16T06:54:07.864Z,6.51
2022-11-16T06:55:07.845Z,6.51
2022-11-16T06:56:07.835Z,6.51
2022-11-16T06:57:07.800Z,6.51
2022-11-16T06:58:07.799Z,6.52
2022-11-16T06:59:07.800Z,6.52
2022-11-16T07:00:07.793Z,6.52
2022-11-16T07:01:07.749Z,6.52
2022-11-16T07:02:07.784Z,6.54
2022-11-16T07:03:07.720Z,6.56
2022-11-16T07:04:07.734Z,6.56
2022-11-16T07:05:07.697Z,6.56
2022-11-16T07:06:07.699Z,6.57
2022-11-16T07:07:07.702Z,6.60
2022-11-16T07:08:07.653Z,6.62
2022-11-16T07:09:07.670Z,6.62
2022-11-16T07:10:07.630Z,6.63
2022-11-16T07:11:07.620Z,6.64
2022-11-16T07:12:07.607Z,6.64
2022-11-16T07:13:07.607Z,6.67
2022-11-16T07:14:07.588Z,6.66
2022-11-16T07:15:07.593Z,6.67
2022-11-16T07:16:07.554Z,6.66
2022-11-16T07:17:09.717Z,6.64
2022-11-16T07:18:07.552Z,6.64
2022-11-16T07:19:07.507Z,6.62
2022-11-16T07:20:07.561Z,6.62
2022-11-16T07:21:07.474Z,6.63
2022-11-16T07:22:07.464Z,6.63
2022-11-16T07:23:11.440Z,6.62
2022-11-16T07:24:07.459Z,6.64
2022-11-16T07:25:07.456Z,6.63
2022-11-16T07:26:07.447Z,6.64
2022-11-16T07:27:07.393Z,6.66
2022-11-16T07:28:07.388Z,6.66
2022-11-16T07:29:07.389Z,6.64
2022-11-16T07:30:07.371Z,6.66
2022-11-16T07:31:07.365Z,6.64
2022-11-16T07:32:07.366Z,6.66
2022-11-16T07:33:07.366Z,6.66
2022-11-16T07:34:07.310Z,6.67
2022-11-16T07:35:07.411Z,6.70
2022-11-16T07:36:07.296Z,6.67
2022-11-16T07:37:07.311Z,6.67
2022-11-16T07:38:07.263Z,6.66
2022-11-16T07:39:07.257Z,6.63
2022-11-16T07:40:07.294Z,6.64
2022-11-16T07:41:07.206Z,6.67
2022-11-16T07:42:07.248Z,6.67
2022-11-16T07:43:07.185Z,6.69
2022-11-16T07:44:10.947Z,6.69
2022-11-16T07:45:07.156Z,6.69
2022-11-16T07:46:41.274Z,6.69
2022-11-16T07:47:07.161Z,6.67
2022-11-16T07:48:07.210Z,6.69
2022-11-16T07:49:11.320Z,6.72
2022-11-16T07:50:07.087Z,6.72
2022-11-16T07:51:07.145Z,6.72
2022-11-16T07:52:07.141Z,6.72
2022-11-16T07:53:07.054Z,6.69
2022-11-16T07:54:07.079Z,6.70
2022-11-16T07:55:07.031Z,6.74
2022-11-16T07:56:07.057Z,6.75
2022-11-16T07:57:07.003Z,6.77
2022-11-16T07:58:07.019Z,6.77
2022-11-16T07:59:06.979Z,6.79
2022-11-16T08:00:06.959Z,6.77
2022-11-16T08:01:06.939Z,6.78
2022-11-16T08:02:06.957Z,6.79
2022-11-16T08:03:06.947Z,6.79
2022-11-16T08:04:06.910Z,6.81
2022-11-16T08:05:06.934Z,6.79
2022-11-16T08:06:06.871Z,6.77
2022-11-16T08:07:06.924Z,6.75
2022-11-16T08:08:06.941Z,6.75
2022-11-16T08:09:06.870Z,6.74
2022-11-16T08:10:06.890Z,6.72
2022-11-16T08:11:06.820Z,6.74
2022-11-16T08:12:06.818Z,6.77
2022-11-16T08:13:06.787Z,6.77
2022-11-16T08:14:06.803Z,6.79
2022-11-16T08:15:06.758Z,6.81
2022-11-16T08:16:06.855Z,6.82
2022-11-16T08:17:06.740Z,6.85
2022-11-16T08:18:06.719Z,6.87
2022-11-16T08:19:06.778Z,6.88
2022-11-16T08:20:06.682Z,6.89
2022-11-16T08:21:06.748Z,6.89
2022-11-16T08:22:06.658Z,6.92
2022-11-16T08:23:06.652Z,6.96
2022-11-16T08:24:06.674Z,6.97
2022-11-16T08:25:06.623Z,6.97
2022-11-16T08:26:06.612Z,7.00
2022-11-16T08:27:06.616Z,7.00
2022-11-16T08:28:06.586Z,7.02
2022-11-16T08:29:06.597Z,7.03
2022-11-16T08:30:06.607Z,7.05
2022-11-16T08:31:06.567Z,7.05
2022-11-16T08:32:06.557Z,7.05
2022-11-16T08:33:06.568Z,7.03
2022-11-16T08:34:06.534Z,7.00
2022-11-16T08:35:06.490Z,6.97
2022-11-16T08:36:12.533Z,6.95
2022-11-16T08:37:06.499Z,6.92
2022-11-16T08:38:06.443Z,6.93
2022-11-16T08:39:06.515Z,6.92
2022-11-16T08:40:06.425Z,6.95
2022-11-16T08:41:06.419Z,6.95
2022-11-16T08:42:06.401Z,6.97
2022-11-16T08:43:06.380Z,6.97
2022-11-16T08:44:06.396Z,7.02
2022-11-16T08:45:06.394Z,7.02
2022-11-16T08:46:06.369Z,7.03
2022-11-16T08:47:06.371Z,7.03
2022-11-16T08:48:06.333Z,7.05
2022-11-16T08:49:06.303Z,7.03
2022-11-16T08:50:06.305Z,7.03
2022-11-16T08:51:21.755Z,7.00
2022-11-16T08:52:06.304Z,7.02
2022-11-16T08:53:06.262Z,7.05
2022-11-16T08:54:06.234Z,7.06
2022-11-16T08:55:06.217Z,7.07
2022-11-16T08:56:06.198Z,7.10
2022-11-16T08:57:06.248Z,7.13
2022-11-16T08:58:06.174Z,7.15
2022-11-16T08:59:06.179Z,7.17
2022-11-16T09:00:06.161Z,7.20
2022-11-16T09:01:06.158Z,7.23
2022-11-16T09:02:06.227Z,7.25
2022-11-16T09:03:06.131Z,7.28
2022-11-16T09:04:06.100Z,7.31
2022-11-16T09:05:06.116Z,7.31
2022-11-16T09:06:06.072Z,7.32
2022-11-16T09:07:06.197Z,7.36
2022-11-16T09:08:06.037Z,7.38
2022-11-16T09:09:06.090Z,7.39
2022-11-16T09:10:06.039Z,7.39
2022-11-16T09:11:06.019Z,7.40
2022-11-16T09:12:06.008Z,7.38
2022-11-16T09:13:06.005Z,7.36
2022-11-16T09:14:05.968Z,7.39
2022-11-16T09:15:05.943Z,7.39
2022-11-16T09:16:05.935Z,7.42
2022-11-16T09:17:05.917Z,7.39
2022-11-16T09:18:05.954Z,7.39
2022-11-16T09:19:05.907Z,7.42
2022-11-16T09:20:05.880Z,7.45
2022-11-16T09:21:05.869Z,7.43
2022-11-16T09:22:05.863Z,7.47
2022-11-16T09:23:05.877Z,7.48
2022-11-16T09:24:06.027Z,7.50
2022-11-16T09:25:05.860Z,7.53
2022-11-16T09:26:05.801Z,7.57
2022-11-16T09:27:05.799Z,7.58
2022-11-16T09:28:05.770Z,7.63
2022-11-16T09:29:05.788Z,7.66
2022-11-16T09:30:05.751Z,7.69
2022-11-16T09:31:05.737Z,7.73
2022-11-16T09:32:05.718Z,7.75
2022-11-16T09:33:05.742Z,7.77
2022-11-16T09:34:05.692Z,7.76
2022-11-16T09:35:05.678Z,7.79
2022-11-16T09:36:05.664Z,7.82
2022-11-16T09:37:05.673Z,7.82
2022-11-16T09:38:05.638Z,7.83
2022-11-16T09:40:05.618Z,7.85
2022-11-16T09:41:05.640Z,7.85
2022-11-16T09:42:05.575Z,7.88
2022-11-16T09:43:05.603Z,7.90
2022-11-16T09:44:05.549Z,7.90
2022-11-16T09:45:05.580Z,7.90
2022-11-16T09:46:05.560Z,7.91
2022-11-16T09:47:05.515Z,7.93
2022-11-16T09:48:05.503Z,7.91
2022-11-16T09:49:13.976Z,7.91
2022-11-16T09:50:05.478Z,7.91
2022-11-16T09:51:05.471Z,7.91
2022-11-16T09:52:05.471Z,7.91
2022-11-16T09:53:05.460Z,7.93
2022-11-16T09:54:05.447Z,7.94
2022-11-16T09:55:05.412Z,7.94
2022-11-16T09:56:05.403Z,7.95
2022-11-16T09:57:10.981Z,7.98
2022-11-16T09:58:05.393Z,7.98
2022-11-16T09:59:05.522Z,8.00
2022-11-16T10:00:05.338Z,8.00
2022-11-16T10:01:05.432Z,8.03
2022-11-16T10:02:05.309Z,8.03
2022-11-16T10:03:05.462Z,8.03
2022-11-16T10:04:05.312Z,8.03
2022-11-16T10:05:05.275Z,8.05
2022-11-16T10:06:05.277Z,8.06
2022-11-16T10:07:05.276Z,8.03
2022-11-16T10:08:05.252Z,8.06
2022-11-16T10:09:05.212Z,8.06
2022-11-16T10:10:05.220Z,8.08
2022-11-16T10:11:05.182Z,8.09
2022-11-16T10:12:05.165Z,8.09
2022-11-16T10:13:05.171Z,8.08
2022-11-16T10:14:05.168Z,8.08
2022-11-16T10:15:05.152Z,8.10
2022-11-16T10:16:05.119Z,8.10
2022-11-16T10:17:05.105Z,8.12
2022-11-16T10:18:05.098Z,8.10
2022-11-16T10:19:05.106Z,8.12
2022-11-16T10:20:05.068Z,8.15
2022-11-16T10:21:05.091Z,8.18
2022-11-16T10:22:05.037Z,8.19
2022-11-16T10:23:05.013Z,8.16
2022-11-16T10:24:05.016Z,8.18
2022-11-16T10:25:05.052Z,8.18
2022-11-16T10:26:04.973Z,8.16
2022-11-16T10:27:04.978Z,8.15
2022-11-16T10:28:04.938Z,8.16
2022-11-16T10:29:04.954Z,8.18
2022-11-16T10:30:04.952Z,8.16
2022-11-16T10:31:04.928Z,8.18
2022-11-16T10:32:04.896Z,8.20
2022-11-16T10:33:10.738Z,8.23
2022-11-16T10:34:04.891Z,8.24
2022-11-16T10:35:04.853Z,8.27
2022-11-16T10:36:04.869Z,8.27
2022-11-16T10:37:04.841Z,8.28
2022-11-16T10:38:04.820Z,8.31
2022-11-16T10:39:04.809Z,8.31
2022-11-16T10:40:04.826Z,8.31
2022-11-16T10:41:04.786Z,8.31
2022-11-16T10:42:07.739Z,8.30
2022-11-16T10:43:04.740Z,8.31
2022-11-16T10:44:04.734Z,8.31
2022-11-16T10:45:04.713Z,8.30
2022-11-16T10:46:04.733Z,8.33
2022-11-16T10:47:04.737Z,8.34
2022-11-16T10:48:04.710Z,8.36
2022-11-16T10:49:04.674Z,8.37
2022-11-16T10:50:04.648Z,8.38
2022-11-16T10:51:04.670Z,8.44
2022-11-16T10:52:04.632Z,8.45
2022-11-16T10:53:04.614Z,8.46
2022-11-16T10:54:04.614Z,8.49
2022-11-16T10:55:04.583Z,8.52
2022-11-16T10:56:04.605Z,8.52
2022-11-16T10:57:04.563Z,8.53
2022-11-16T10:58:04.553Z,8.58
2022-11-16T10:59:04.541Z,8.60
2022-11-16T11:00:06.645Z,8.61
2022-11-16T11:01:04.611Z,8.61
2022-11-16T11:02:04.525Z,8.67
2022-11-16T11:03:04.537Z,8.67
2022-11-16T11:04:04.480Z,8.69
2022-11-16T11:05:04.502Z,8.70
2022-11-16T11:06:04.435Z,8.71
2022-11-16T11:07:04.494Z,8.74
2022-11-16T11:08:04.400Z,8.76
2022-11-16T11:09:04.426Z,8.76
2022-11-16T11:10:04.383Z,8.74
2022-11-16T11:11:04.402Z,8.74
2022-11-16T11:12:04.378Z,8.73
2022-11-16T11:13:04.338Z,8.71
2022-11-16T11:14:04.330Z,8.71
2022-11-16T11:15:04.310Z,8.69
2022-11-16T11:16:04.359Z,8.66
2022-11-16T11:17:04.284Z,8.64
2022-11-16T11:18:04.282Z,8.66
2022-11-16T11:19:04.263Z,8.67
2022-11-16T11:20:04.240Z,8.66
2022-11-16T11:21:04.257Z,8.69
2022-11-16T11:22:04.215Z,8.69
2022-11-16T11:23:04.221Z,8.70
2022-11-16T11:24:37.364Z,8.71
2022-11-16T11:25:04.211Z,8.70
2022-11-16T11:26:04.176Z,8.70
2022-11-16T11:27:04.166Z,8.71
2022-11-16T11:28:04.170Z,8.73
2022-11-16T11:29:04.134Z,8.71
2022-11-16T11:30:04.102Z,8.70
2022-11-16T11:31:04.095Z,8.70
2022-11-16T11:32:04.079Z,8.69
2022-11-16T11:33:04.073Z,8.69
2022-11-16T11:34:04.107Z,8.70
2022-11-16T11:35:04.087Z,8.70
2022-11-16T11:36:04.032Z,8.70
2022-11-16T11:37:04.029Z,8.70
2022-11-16T11:38:07.990Z,8.73
2022-11-16T11:39:04.148Z,8.76
2022-11-16T11:40:03.984Z,8.73
2022-11-16T11:41:03.963Z,8.81
2022-11-16T11:42:03.948Z,8.79
2022-11-16T11:43:03.947Z,8.81
2022-11-16T11:44:03.917Z,8.79
2022-11-16T11:45:03.923Z,8.78
2022-11-16T11:46:03.918Z,8.74
2022-11-16T11:47:50.424Z,8.74
2022-11-16T11:48:03.870Z,8.78
2022-11-16T11:49:03.851Z,8.78
2022-11-16T11:50:03.872Z,8.79
2022-11-16T11:51:03.861Z,8.81
2022-11-16T11:52:03.844Z,8.78
2022-11-16T11:53:03.843Z,8.76
2022-11-16T11:54:03.791Z,8.71
2022-11-16T11:55:03.773Z,8.69
2022-11-16T11:56:03.754Z,8.70
2022-11-16T11:57:03.773Z,8.71
2022-11-16T11:58:03.751Z,8.71
2022-11-16T11:59:03.716Z,8.74
2022-11-16T12:00:03.692Z,8.76
2022-11-16T12:01:03.681Z,8.78
2022-11-16T12:02:03.708Z,8.78
2022-11-16T12:03:03.716Z,8.82
2022-11-16T12:04:03.704Z,8.84
2022-11-16T12:05:03.658Z,8.85
2022-11-16T12:06:03.653Z,8.88
2022-11-16T12:07:03.667Z,8.91
2022-11-16T12:08:03.617Z,8.91
2022-11-16T12:09:03.581Z,8.94
2022-11-16T12:10:03.627Z,8.95
2022-11-16T12:11:03.545Z,8.95
2022-11-16T12:12:03.538Z,8.94
2022-11-16T12:13:03.555Z,8.92
2022-11-16T12:14:03.521Z,8.89
2022-11-16T12:15:03.516Z,8.88
2022-11-16T12:16:03.476Z,8.87
2022-11-16T12:17:03.487Z,8.85
2022-11-16T12:18:03.486Z,8.88
2022-11-16T12:19:03.460Z,8.88
2022-11-16T12:20:03.433Z,8.88
2022-11-16T12:21:03.412Z,8.89
2022-11-16T12:22:03.437Z,8.92
2022-11-16T12:23:04.444Z,8.94
2022-11-16T12:24:03.388Z,8.92
2022-11-16T12:25:03.359Z,8.94
2022-11-16T12:26:03.358Z,8.95
2022-11-16T12:27:03.355Z,8.99
2022-11-16T12:28:03.312Z,9.02
2022-11-16T12:29:03.326Z,9.04
2022-11-16T12:30:03.303Z,9.04
2022-11-16T12:31:03.273Z,9.04
2022-11-16T12:32:03.275Z,9.03
2022-11-16T12:33:03.285Z,9.06
2022-11-16T12:34:03.246Z,9.10
2022-11-16T12:35:03.221Z,9.08
2022-11-16T12:36:03.249Z,9.13
2022-11-16T12:37:03.202Z,9.14
2022-11-16T12:38:03.178Z,9.18
2022-11-16T12:39:03.170Z,9.19
2022-11-16T12:40:03.155Z,9.22
2022-11-16T12:41:03.179Z,9.18
2022-11-16T12:42:03.163Z,9.19
2022-11-16T12:43:03.128Z,9.18
2022-11-16T12:44:03.107Z,9.16
2022-11-16T12:45:03.102Z,9.18
2022-11-16T12:46:03.082Z,9.16
2022-11-16T12:47:03.087Z,9.16
2022-11-16T12:48:03.062Z,9.14
2022-11-16T12:49:03.074Z,9.11
2022-11-16T12:50:03.019Z,9.11
2022-11-16T12:51:03.025Z,9.13
2022-11-16T12:52:02.993Z,9.11
2022-11-16T12:53:02.974Z,9.13
2022-11-16T12:54:03.037Z,9.13
2022-11-16T12:56:02.973Z,9.14
2022-11-16T12:57:02.918Z,9.16
2022-11-16T12:58:02.921Z,9.16
2022-11-16T12:59:02.916Z,9.16
2022-11-16T13:00:02.904Z,9.14
2022-11-16T13:01:03.014Z,9.14
2022-11-16T13:02:02.884Z,9.16
2022-11-16T13:03:02.849Z,9.18
2022-11-16T13:04:02.832Z,9.18
2022-11-16T13:05:02.867Z,9.18
2022-11-16T13:06:02.812Z,9.21
2022-11-16T13:07:07.785Z,9.21
2022-11-16T13:08:02.780Z,9.19
2022-11-16T13:09:02.782Z,9.21
2022-11-16T13:10:02.782Z,9.18
2022-11-16T13:11:02.818Z,9.18
2022-11-16T13:12:02.742Z,9.18
2022-11-16T13:13:34.914Z,9.18
2022-11-16T13:14:02.709Z,9.18
2022-11-16T13:15:02.714Z,9.16
2022-11-16T13:16:02.669Z,9.16
2022-11-16T13:17:02.664Z,9.19
2022-11-16T13:18:02.641Z,9.18
2022-11-16T13:19:02.627Z,9.16
2022-11-16T13:20:02.648Z,9.13